Time;durP1;ratioP1;P1;durP2;ratioP2;P2;SDS_P1;SDS_P2;PMS_P1;PMS_P2;Temp;Humidity;BMP_temperature;BMP_pressure;BME280_temperature;BME280_humidity;BME280_pressure;Samples;Min_cycle;Max_cycle;Signal;HPM_P1;HPM_P2
2023/03/27 00:01:05;;;;;;;2.67;2.30;;;13.40;58.60;;;;;;5077537;28;20028;-78
2023/03/27 00:03:31;;;;;;;2.50;2.10;;;13.30;58.70;;;;;;5077748;28;20071;-78
2023/03/27 00:06:10;;;;;;;2.28;2.08;;;13.30;58.70;;;;;;5077348;28;20055;-77
2023/03/27 00:08:37;;;;;;;2.28;2.08;;;13.30;58.70;;;;;;5077312;28;20024;-78
2023/03/27 00:11:03;;;;;;;2.42;2.22;;;13.30;58.70;;;;;;5077693;28;20493;-78
2023/03/27 00:13:30;;;;;;;2.90;2.20;;;13.30;58.60;;;;;;5095740;28;20035;-77
2023/03/27 00:15:57;;;;;;;2.25;2.05;;;13.30;58.60;;;;;;5095574;28;20023;-78
2023/03/27 00:18:24;;;;;;;2.30;2.10;;;13.30;58.60;;;;;;5095577;28;20028;-79
2023/03/27 00:20:50;;;;;;;2.13;1.92;;;13.30;58.60;;;;;;5076939;28;20040;-78
2023/03/27 00:23:16;;;;;;;2.47;2.20;;;13.20;58.50;;;;;;5095457;28;20027;-78
2023/03/27 00:25:42;;;;;;;2.53;2.10;;;13.20;58.50;;;;;;5077158;28;20106;-78
2023/03/27 00:28:07;;;;;;;2.67;2.10;;;13.30;58.60;;;;;;5095250;28;20556;-78
2023/03/27 00:30:34;;;;;;;2.28;2.08;;;13.30;58.60;;;;;;5076644;28;20535;-78
2023/03/27 00:33:00;;;;;;;2.40;1.95;;;13.20;58.50;;;;;;5077234;28;20024;-78
2023/03/27 00:35:28;;;;;;;2.33;2.13;;;13.30;58.50;;;;;;5076991;28;20052;-76
2023/03/27 00:37:54;;;;;;;2.53;2.20;;;13.30;58.50;;;;;;5095022;28;20020;-78
2023/03/27 00:40:21;;;;;;;3.05;2.25;;;13.30;58.50;;;;;;5076413;28;20024;-78
2023/03/27 00:42:56;;;;;;;3.10;2.53;;;13.20;58.50;;;;;;5094894;28;20039;-78
2023/03/27 00:45:27;;;;;;;2.30;2.10;;;13.20;58.50;;;;;;5095489;28;20024;-78
2023/03/27 00:47:58;;;;;;;2.42;2.22;;;13.20;58.50;;;;;;5096168;28;20028;-76
2023/03/27 00:50:28;;;;;;;2.80;2.50;;;13.20;58.40;;;;;;5095179;28;20024;-77
2023/03/27 00:52:57;;;;;;;2.45;2.25;;;13.20;58.40;;;;;;5077212;28;20054;-78
2023/03/27 00:55:26;;;;;;;2.50;2.30;;;13.20;58.40;;;;;;5094483;28;20028;-78
2023/03/27 00:57:59;;;;;;;2.72;2.30;;;13.20;58.40;;;;;;5094441;28;20028;-78
2023/03/27 01:00:26;;;;;;;2.50;2.30;;;13.20;58.40;;;;;;5076138;28;20450;-78
2023/03/27 01:02:51;;;;;;;2.70;2.20;;;13.10;58.40;;;;;;5094788;28;20059;-76
2023/03/27 01:05:19;;;;;;;2.55;2.35;;;13.10;58.40;;;;;;5094731;28;20032;-77
2023/03/27 01:07:47;;;;;;;2.55;2.30;;;13.10;58.50;;;;;;5075801;28;20051;-79
2023/03/27 01:10:14;;;;;;;2.65;2.20;;;13.10;58.40;;;;;;5095000;28;20031;-78
2023/03/27 01:13:00;;;;;;;2.58;2.30;;;13.10;58.50;;;;;;5094049;28;20024;-78
2023/03/27 01:15:40;;;;;;;2.63;2.42;;;13.10;58.40;;;;;;5094492;28;20020;-77
2023/03/27 01:18:22;;;;;;;2.53;2.28;;;13.00;58.40;;;;;;5094272;28;20066;-77
2023/03/27 01:21:04;;;;;;;3.65;2.50;;;13.10;58.50;;;;;;5094117;28;20062;-77
2023/03/27 01:23:33;;;;;;;3.13;2.50;;;13.00;58.40;;;;;;5094621;28;20081;-78
2023/03/27 01:26:19;;;;;;;2.55;2.30;;;13.00;58.40;;;;;;5094020;28;20027;-78
2023/03/27 01:28:48;;;;;;;2.35;2.15;;;13.10;58.40;;;;;;5042492;28;20498;-77
2023/03/27 01:31:43;;;;;;;3.17;2.45;;;13.00;58.40;;;;;;5075763;28;20032;-77
2023/03/27 01:34:35;;;;;;;2.40;2.20;;;13.00;58.30;;;;;;5094488;28;20107;-78
2023/03/27 01:37:31;;;;;;;2.72;2.20;;;13.00;58.30;;;;;;5093937;28;20047;-78
2023/03/27 01:40:20;;;;;;;2.30;2.10;;;13.00;58.30;;;;;;5093788;28;20032;-78
2023/03/27 01:43:05;;;;;;;2.53;2.30;;;13.00;58.30;;;;;;5093581;28;20666;-77
2023/03/27 01:45:49;;;;;;;2.50;2.22;;;13.00;58.30;;;;;;5076045;28;20470;-77
2023/03/27 01:48:17;;;;;;;2.47;2.25;;;12.90;58.30;;;;;;5061218;28;20032;-78
2023/03/27 01:51:08;;;;;;;3.03;2.30;;;12.90;58.30;;;;;;5093778;28;20055;-78
2023/03/27 01:53:43;;;;;;;2.45;2.10;;;12.90;58.20;;;;;;5093303;28;20429;-76
2023/03/27 01:56:25;;;;;;;2.22;2.03;;;12.90;58.30;;;;;;5075491;28;20466;-78
2023/03/27 01:58:56;;;;;;;2.60;2.40;;;12.90;58.30;;;;;;5093945;28;20039;-78
2023/03/27 02:01:26;;;;;;;2.78;2.47;;;12.90;58.30;;;;;;5075593;28;20036;-78
2023/03/27 02:03:56;;;;;;;2.53;2.30;;;12.90;58.30;;;;;;5092912;28;20062;-78
2023/03/27 02:06:32;;;;;;;2.60;2.40;;;12.90;58.30;;;;;;5093749;28;20035;-78
2023/03/27 02:09:07;;;;;;;2.63;2.35;;;12.80;58.30;;;;;;5093395;28;20501;-78
2023/03/27 02:11:56;;;;;;;2.70;2.45;;;12.80;58.30;;;;;;5092614;28;20462;-76
2023/03/27 02:14:29;;;;;;;2.60;2.40;;;12.80;58.30;;;;;;5074003;28;20058;-76
2023/03/27 02:17:01;;;;;;;2.57;2.33;;;12.80;58.30;;;;;;5093631;28;20028;-78
2023/03/27 02:19:34;;;;;;;2.65;2.38;;;12.70;58.30;;;;;;5075314;28;20268;-76
2023/03/27 02:22:01;;;;;;;2.40;2.20;;;12.70;58.30;;;;;;5094332;28;20035;-77
2023/03/27 02:24:26;;;;;;;2.40;2.20;;;12.70;58.40;;;;;;5075502;28;20024;-77
2023/03/27 02:27:03;;;;;;;2.72;2.45;;;12.60;58.40;;;;;;5093097;28;20030;-78
2023/03/27 02:29:43;;;;;;;2.15;2.00;;;12.60;58.40;;;;;;5093393;28;20027;-78
2023/03/27 02:32:32;;;;;;;2.35;2.15;;;12.60;58.50;;;;;;5093284;28;20024;-78
2023/03/27 02:35:34;;;;;;;2.80;2.50;;;12.60;58.30;;;;;;5097432;28;20110;-77
2023/03/27 02:38:03;;;;;;;2.30;2.10;;;12.60;58.40;;;;;;5093193;28;20048;-78
2023/03/27 02:40:46;;;;;;;2.38;2.15;;;12.60;58.40;;;;;;5092774;28;20359;-77
2023/03/27 02:43:20;;;;;;;2.42;2.22;;;12.60;58.40;;;;;;5093082;28;20029;-79
2023/03/27 02:45:56;;;;;;;2.40;2.13;;;12.50;58.40;;;;;;5103676;28;20031;-77
2023/03/27 02:48:38;;;;;;;2.40;2.20;;;12.50;59.00;;;;;;5094994;28;20038;-78
2023/03/27 02:51:12;;;;;;;2.30;2.10;;;12.50;58.50;;;;;;5095135;28;20039;-77
2023/03/27 02:53:42;;;;;;;;;;;12.50;58.50;;;;;;5095365;28;20031;-78
2023/03/27 02:56:09;;;;;;;2.10;2.00;;;12.40;58.40;;;;;;5112910;28;20349;-78
2023/03/27 02:58:59;;;;;;;2.50;2.20;;;12.40;58.50;;;;;;5094378;28;20035;-79
2023/03/27 03:01:26;;;;;;;2.30;2.10;;;12.40;58.50;;;;;;5129294;28;20052;-77
2023/03/27 03:03:57;;;;;;;2.30;2.10;;;12.40;58.50;;;;;;5112802;28;20108;-77
2023/03/27 03:06:28;;;;;;;2.35;2.10;;;12.40;58.60;;;;;;5112701;28;20529;-77
2023/03/27 03:09:03;;;;;;;2.22;2.03;;;12.30;58.50;;;;;;5113308;28;20027;-76
2023/03/27 03:11:29;;;;;;;2.33;2.05;;;12.30;58.60;;;;;;5113750;28;20028;-78
2023/03/27 03:13:55;;;;;;;3.33;2.72;;;12.30;58.60;;;;;;5112959;28;20384;-77
2023/03/27 03:16:22;;;;;;;2.50;2.30;;;12.30;58.50;;;;;;5112731;28;20461;-79
2023/03/27 03:18:48;;;;;;;2.58;2.35;;;12.30;58.60;;;;;;5094445;28;20417;-78
2023/03/27 03:21:14;;;;;;;2.50;2.22;;;12.30;58.60;;;;;;5113208;28;20172;-78
2023/03/27 03:23:40;;;;;;;2.60;2.40;;;12.30;58.60;;;;;;5116912;28;20060;-79
2023/03/27 03:26:06;;;;;;;2.65;2.42;;;12.30;58.60;;;;;;5116967;28;20477;-78
2023/03/27 03:28:33;;;;;;;2.63;2.40;;;12.30;58.60;;;;;;5117127;28;20110;-76
2023/03/27 03:31:01;;;;;;;2.60;2.40;;;12.30;58.50;;;;;;5116910;28;20027;-78
2023/03/27 03:33:28;;;;;;;3.00;2.45;;;12.30;58.50;;;;;;5116630;28;20107;-75
2023/03/27 03:35:59;;;;;;;2.42;2.20;;;12.30;58.50;;;;;;5116065;28;20055;-77
2023/03/27 03:38:26;;;;;;;3.33;2.45;;;12.30;58.50;;;;;;5098572;28;20050;-77
2023/03/27 03:40:54;;;;;;;3.33;2.60;;;12.30;58.50;;;;;;5098338;28;20064;-77
2023/03/27 03:43:21;;;;;;;3.35;2.42;;;12.30;58.50;;;;;;5116615;28;20027;-78
2023/03/27 03:45:48;;;;;;;3.45;2.58;;;12.30;58.50;;;;;;5115917;28;20465;-79
2023/03/27 03:48:13;;;;;;;2.90;2.55;;;12.30;58.50;;;;;;5098250;28;20436;-79
2023/03/27 03:50:39;;;;;;;3.10;2.70;;;12.30;58.50;;;;;;5116766;28;20028;-79
2023/03/27 03:53:05;;;;;;;2.88;2.53;;;12.30;58.50;;;;;;5116880;28;20046;-79
2023/03/27 03:55:31;;;;;;;3.47;2.63;;;12.30;58.50;;;;;;5116521;28;20028;-79
2023/03/27 03:57:57;;;;;;;3.15;2.58;;;12.20;59.10;;;;;;5115513;28;20034;-77
2023/03/27 04:00:24;;;;;;;3.03;2.40;;;12.20;58.50;;;;;;5097818;28;20032;-79
2023/03/27 04:02:53;;;;;;;2.97;2.70;;;12.20;58.50;;;;;;5115836;28;20084;-78
2023/03/27 04:05:20;;;;;;;2.70;2.50;;;12.20;58.50;;;;;;5098188;28;20108;-79
2023/03/27 04:07:46;;;;;;;5.28;2.50;;;12.20;58.50;;;;;;5115797;28;20081;-79
2023/03/27 04:10:14;;;;;;;2.72;2.40;;;12.20;58.50;;;;;;5115911;28;20028;-79
2023/03/27 04:12:45;;;;;;;3.75;2.88;;;12.20;58.50;;;;;;5115995;28;20027;-79
2023/03/27 04:15:11;;;;;;;3.70;2.75;;;12.30;58.50;;;;;;5115804;28;20023;-79
2023/03/27 04:17:38;;;;;;;2.80;2.58;;;12.20;58.40;;;;;;5115412;28;20098;-77
2023/03/27 04:20:05;;;;;;;3.03;2.70;;;12.20;58.50;;;;;;5115559;28;20088;-79
2023/03/27 04:22:36;;;;;;;4.55;2.90;;;12.30;58.50;;;;;;5097109;28;20059;-79
2023/03/27 04:25:03;;;;;;;3.88;2.80;;;12.30;58.50;;;;;;5116118;28;20110;-79
2023/03/27 04:27:29;;;;;;;3.28;2.70;;;12.30;58.50;;;;;;5096932;28;20045;-79
2023/03/27 04:29:55;;;;;;;3.33;2.80;;;12.30;58.50;;;;;;5115251;28;20536;-79
2023/03/27 04:32:20;;;;;;;3.20;2.90;;;12.30;58.50;;;;;;5115444;28;20034;-79
2023/03/27 04:34:49;;;;;;;2.80;2.50;;;12.30;58.40;;;;;;5109826;28;20089;-79
2023/03/27 04:37:15;;;;;;;3.08;2.67;;;12.30;58.40;;;;;;5076703;28;20036;-79
2023/03/27 04:39:45;;;;;;;4.18;3.38;;;12.30;58.40;;;;;;5094764;28;20020;-79
2023/03/27 04:42:12;;;;;;;3.08;2.70;;;12.30;58.40;;;;;;5076292;28;20039;-79
2023/03/27 04:44:39;;;;;;;3.22;2.70;;;12.30;58.30;;;;;;5076694;28;20035;-78
2023/03/27 04:47:06;;;;;;;3.80;2.80;;;12.40;58.30;;;;;;5094620;28;20466;-77
2023/03/27 04:49:39;;;;;;;3.33;2.78;;;12.30;58.30;;;;;;5094696;28;20016;-81
2023/03/27 04:52:05;;;;;;;3.20;2.65;;;12.40;58.30;;;;;;5094950;28;20054;-73
2023/03/27 04:54:32;;;;;;;3.22;2.53;;;12.40;58.30;;;;;;5094386;28;20017;-77
2023/03/27 04:56:59;;;;;;;2.67;2.47;;;12.40;58.60;;;;;;5076167;28;20032;-75
2023/03/27 04:59:25;;;;;;;3.40;3.10;;;12.40;58.70;;;;;;5094323;28;20404;-79
2023/03/27 05:01:51;;;;;;;2.63;2.42;;;12.50;58.70;;;;;;5077522;28;20032;-78
2023/03/27 05:04:16;;;;;;;2.88;2.58;;;12.50;58.70;;;;;;5095192;28;20032;-77
2023/03/27 05:06:43;;;;;;;3.20;2.40;;;12.50;58.60;;;;;;5094322;28;20453;-76
2023/03/27 05:09:08;;;;;;;3.38;2.60;;;12.60;58.50;;;;;;5094250;28;20024;-78
2023/03/27 05:11:35;;;;;;;3.05;2.45;;;12.50;58.40;;;;;;5093733;28;20039;-77
2023/03/27 05:14:01;;;;;;;3.20;2.20;;;12.60;58.50;;;;;;5094383;28;20028;-76
2023/03/27 05:16:26;;;;;;;2.92;2.53;;;12.60;58.40;;;;;;5076064;28;20551;-77
2023/03/27 05:18:53;;;;;;;3.20;2.65;;;12.60;58.30;;;;;;5076175;28;20035;-78
2023/03/27 05:21:19;;;;;;;3.38;2.80;;;12.70;58.30;;;;;;5076005;28;20060;-77
2023/03/27 05:23:45;;;;;;;3.92;2.80;;;12.70;58.30;;;;;;5075587;28;20032;-76
2023/03/27 05:26:10;;;;;;;3.25;2.50;;;12.70;58.30;;;;;;5094156;28;20347;-78
2023/03/27 05:28:38;;;;;;;3.05;2.55;;;12.70;58.30;;;;;;5080629;28;20040;-77
2023/03/27 05:31:04;;;;;;;2.90;2.60;;;12.70;58.20;;;;;;5090396;28;20111;-83
2023/03/27 05:33:31;;;;;;;3.30;2.50;;;12.70;58.20;;;;;;5078562;28;20525;-83
2023/03/27 05:35:56;;;;;;;3.00;2.70;;;12.80;58.20;;;;;;5107439;28;20070;-83
2023/03/27 05:38:23;;;;;;;3.60;2.50;;;12.80;58.20;;;;;;5098760;28;20023;-84
2023/03/27 05:40:51;;;;;;;3.08;2.67;;;12.80;58.20;;;;;;5112858;28;20051;-83
2023/03/27 05:43:16;;;;;;;3.42;2.70;;;12.80;58.10;;;;;;5087148;28;20020;-80
2023/03/27 05:45:42;;;;;;;3.13;2.60;;;12.80;58.10;;;;;;5113989;28;20035;-84
2023/03/27 05:48:08;;;;;;;2.47;2.28;;;12.80;58.10;;;;;;5114238;28;20020;-85
2023/03/27 05:50:35;;;;;;;3.28;2.50;;;12.90;58.10;;;;;;5101725;28;20124;-87
2023/03/27 05:53:08;;;;;;;2.63;2.42;;;12.90;58.10;;;;;;5085935;28;20569;-81
2023/03/27 05:55:35;;;;;;;2.60;2.40;;;12.90;58.10;;;;;;5083206;28;20036;-73
2023/03/27 05:58:01;;;;;;;3.58;2.80;;;12.90;58.10;;;;;;5103660;28;20361;-87
2023/03/27 06:00:30;;;;;;;3.03;2.55;;;12.90;58.10;;;;;;5101295;28;20040;-81
2023/03/27 06:02:58;;;;;;;3.22;2.53;;;13.00;58.10;;;;;;5093318;28;20039;-84
2023/03/27 06:05:28;;;;;;;3.00;2.60;;;13.00;58.10;;;;;;5093731;28;20047;-79
2023/03/27 06:07:57;;;;;;;2.75;2.53;;;13.00;58.10;;;;;;5076329;28;20032;-85
2023/03/27 06:10:25;;;;;;;3.75;2.60;;;13.00;58.10;;;;;;5102557;28;20114;-85
2023/03/27 06:13:07;;;;;;;2.80;2.40;;;13.00;58.10;;;;;;5063266;28;20028;-90
2023/03/27 06:15:35;;;;;;;2.78;2.40;;;13.10;58.20;;;;;;5086203;28;20050;-85
2023/03/27 06:18:01;;;;;;;2.70;2.50;;;13.10;58.20;;;;;;5113599;28;20039;-84
2023/03/27 06:20:27;;;;;;;2.42;2.22;;;13.10;58.20;;;;;;5113517;28;20389;-86
2023/03/27 06:22:55;;;;;;;2.50;2.30;;;13.10;58.20;;;;;;5113229;28;20028;-84
2023/03/27 06:25:22;;;;;;;3.03;2.42;;;13.20;58.20;;;;;;5095047;28;20027;-83
2023/03/27 06:27:49;;;;;;;3.05;2.50;;;13.20;58.20;;;;;;5083708;28;20081;-88
2023/03/27 06:30:17;;;;;;;2.72;2.50;;;13.10;58.20;;;;;;5112455;28;20036;-85
2023/03/27 06:32:48;;;;;;;3.20;2.63;;;13.20;58.30;;;;;;5094248;28;20110;-88
2023/03/27 06:35:14;;;;;;;2.58;2.38;;;13.20;58.30;;;;;;5093534;28;20083;-87
2023/03/27 06:37:47;;;;;;;2.60;2.40;;;13.20;58.30;;;;;;5087466;28;20032;-78
2023/03/27 06:40:23;;;;;;;2.90;2.42;;;13.30;58.40;;;;;;5094935;28;20031;-80
2023/03/27 06:42:54;;;;;;;2.80;2.40;;;13.30;58.40;;;;;;5094339;28;20122;-80
2023/03/27 06:45:21;;;;;;;3.38;2.70;;;13.40;58.40;;;;;;5095094;28;20023;-87
2023/03/27 06:48:02;;;;;;;2.95;2.47;;;13.40;58.40;;;;;;5114510;28;20024;-84
2023/03/27 06:50:29;;;;;;;2.70;2.50;;;13.40;58.40;;;;;;5113350;28;20023;-82
2023/03/27 06:52:56;;;;;;;3.30;2.63;;;13.50;58.40;;;;;;5089723;28;20051;-82
2023/03/27 06:55:23;;;;;;;4.28;2.63;;;13.50;58.40;;;;;;5075255;28;20110;-88
2023/03/27 06:57:51;;;;;;;2.55;2.28;;;13.60;58.40;;;;;;5098415;28;20081;-82
2023/03/27 07:00:21;;;;;;;2.95;2.65;;;13.60;58.30;;;;;;5081171;28;20435;-89
2023/03/27 07:02:48;;;;;;;2.40;2.20;;;13.60;58.30;;;;;;5080472;28;20477;-85
2023/03/27 07:05:15;;;;;;;3.10;2.45;;;13.70;58.30;;;;;;5081166;28;20032;-83
2023/03/27 07:07:42;;;;;;;2.45;2.20;;;13.80;58.40;;;;;;5081406;28;20074;-84
2023/03/27 07:10:09;;;;;;;2.63;2.42;;;13.80;58.30;;;;;;5094687;28;20031;-84
2023/03/27 07:12:35;;;;;;;2.67;2.47;;;13.90;58.40;;;;;;5100771;28;20024;-75
2023/03/27 07:15:01;;;;;;;2.63;2.28;;;13.90;58.40;;;;;;5119261;28;20024;-78
2023/03/27 07:17:27;;;;;;;2.80;2.42;;;14.00;58.40;;;;;;5097771;28;20023;-84
2023/03/27 07:19:52;;;;;;;2.50;2.30;;;14.00;58.30;;;;;;5083483;28;20039;-81
2023/03/27 07:22:19;;;;;;;3.70;2.70;;;14.00;58.30;;;;;;5116454;28;20143;-89
2023/03/27 07:24:44;;;;;;;3.30;2.47;;;14.00;58.20;;;;;;5102018;28;20034;-85
2023/03/27 07:27:10;;;;;;;3.13;2.22;;;14.10;58.20;;;;;;5120395;28;20024;-90
2023/03/27 07:29:36;;;;;;;2.50;2.30;;;14.10;58.10;;;;;;5120151;28;20032;-84
2023/03/27 07:32:03;;;;;;;2.60;2.30;;;14.10;57.90;;;;;;5120494;28;20035;-87
2023/03/27 07:34:29;;;;;;;2.63;2.30;;;14.10;57.90;;;;;;5118740;28;20356;-83
2023/03/27 07:36:58;;;;;;;2.40;2.10;;;14.10;57.80;;;;;;5099023;28;20028;-87
2023/03/27 07:39:24;;;;;;;2.42;2.10;;;14.20;57.80;;;;;;5098579;28;20085;-87
2023/03/27 07:41:51;;;;;;;2.20;2.00;;;14.20;57.70;;;;;;5098455;28;20375;-76
2023/03/27 07:44:17;;;;;;;2.40;2.20;;;14.20;57.60;;;;;;5098417;28;20031;-76
2023/03/27 07:46:43;;;;;;;2.00;1.80;;;14.20;57.60;;;;;;5080150;28;20445;-74
2023/03/27 07:49:10;;;;;;;1.98;1.77;;;14.20;57.60;;;;;;5080501;28;20485;-76
2023/03/27 07:51:37;;;;;;;1.77;1.67;;;14.30;57.60;;;;;;5097838;28;20024;-81
2023/03/27 07:54:03;;;;;;;4.15;2.05;;;14.30;57.50;;;;;;5079462;28;20052;-81
2023/03/27 07:56:32;;;;;;;1.95;1.80;;;14.30;57.40;;;;;;5080094;28;20470;-76
2023/03/27 07:58:59;;;;;;;2.10;1.60;;;14.40;57.40;;;;;;5098730;28;20064;-76
2023/03/27 08:01:25;;;;;;;2.25;1.80;;;14.40;57.30;;;;;;5098684;28;20081;-76
2023/03/27 08:03:51;;;;;;;1.80;1.70;;;14.40;57.20;;;;;;5079739;28;20110;-78
2023/03/27 08:06:17;;;;;;;2.20;2.00;;;14.40;57.40;;;;;;5098554;28;20343;-83
2023/03/27 08:08:43;;;;;;;1.70;1.60;;;14.40;57.40;;;;;;5095107;28;20036;-81
2023/03/27 08:11:09;;;;;;;1.50;1.40;;;14.50;57.40;;;;;;5095538;28;20158;-80
2023/03/27 08:13:35;;;;;;;1.90;1.80;;;14.50;57.40;;;;;;5095272;28;20031;-77
2023/03/27 08:16:09;;;;;;;2.13;1.80;;;14.60;57.60;;;;;;5094864;28;20028;-80
2023/03/27 08:18:35;;;;;;;2.10;1.90;;;14.70;57.60;;;;;;5095223;28;20045;-83
2023/03/27 08:21:03;;;;;;;1.60;1.50;;;14.70;57.50;;;;;;5095116;28;20069;-77
2023/03/27 08:23:29;;;;;;;1.77;1.63;;;14.80;57.40;;;;;;5085680;28;20032;-78
2023/03/27 08:25:59;;;;;;;1.95;1.73;;;14.80;57.30;;;;;;5083442;28;20088;-82
2023/03/27 08:28:29;;;;;;;2.55;1.88;;;14.80;57.20;;;;;;5072897;28;20034;-82
2023/03/27 08:30:56;;;;;;;1.88;1.77;;;14.90;57.20;;;;;;5080007;28;20078;-83
2023/03/27 08:33:22;;;;;;;1.90;1.80;;;14.90;57.10;;;;;;5066439;28;20374;-78
2023/03/27 08:35:48;;;;;;;1.95;1.85;;;15.00;57.10;;;;;;5066041;28;20048;-77
2023/03/27 08:38:16;;;;;;;2.13;1.52;;;15.00;57.00;;;;;;5064025;28;20028;-82
2023/03/27 08:40:57;;;;;;;2.35;1.85;;;15.00;56.90;;;;;;5056958;28;20075;-76
2023/03/27 08:43:27;;;;;;;1.80;1.70;;;15.10;56.80;;;;;;5056807;28;20024;-75
2023/03/27 08:45:58;;;;;;;1.70;1.60;;;15.10;56.70;;;;;;5055803;28;20062;-75
2023/03/27 08:48:33;;;;;;;2.28;2.08;;;15.10;56.50;;;;;;5056440;28;20028;-75
2023/03/27 08:51:04;;;;;;;1.75;1.65;;;15.10;56.40;;;;;;5073658;28;20478;-77
2023/03/27 08:54:01;;;;;;;1.60;1.50;;;15.20;57.00;;;;;;5074841;28;20058;-76
2023/03/27 08:56:27;;;;;;;1.60;1.50;;;15.20;56.30;;;;;;5055833;28;20029;-74
2023/03/27 08:58:53;;;;;;;1.77;1.67;;;15.30;56.30;;;;;;5074334;28;20462;-76
2023/03/27 09:01:40;;;;;;;1.50;1.40;;;15.30;56.20;;;;;;5057396;28;20473;-75
2023/03/27 09:04:09;;;;;;;1.40;1.30;;;15.40;56.20;;;;;;5073821;28;20060;-76
2023/03/27 09:06:41;;;;;;;2.05;1.70;;;15.40;56.10;;;;;;5073285;28;20028;-76
2023/03/27 09:09:25;;;;;;;1.75;1.63;;;15.50;56.10;;;;;;5072470;28;20354;-76
2023/03/27 09:12:04;;;;;;;1.75;1.65;;;15.50;56.60;;;;;;5092853;28;20494;-79
2023/03/27 09:14:44;;;;;;;1.40;1.30;;;15.60;55.90;;;;;;5094795;28;20028;-77
2023/03/27 09:17:25;;;;;;;1.50;1.40;;;15.60;55.80;;;;;;5093623;28;20108;-77
2023/03/27 09:20:18;;;;;;;1.48;1.30;;;15.70;55.70;;;;;;5093283;28;20447;-77
2023/03/27 09:22:51;;;;;;;1.90;1.70;;;15.80;55.70;;;;;;5075473;28;20070;-84
2023/03/27 09:25:29;;;;;;;1.60;1.50;;;15.80;55.60;;;;;;5093680;28;20112;-78
2023/03/27 09:27:57;;;;;;;1.55;1.45;;;15.90;55.50;;;;;;5074875;28;20032;-81
2023/03/27 09:30:32;;;;;;;2.78;1.75;;;15.90;55.50;;;;;;5079990;28;20024;-78
2023/03/27 09:33:04;;;;;;;1.80;1.70;;;16.10;55.40;;;;;;5056180;28;20509;-77
2023/03/27 09:35:31;;;;;;;1.63;1.50;;;16.20;55.40;;;;;;5056243;28;20048;-80
2023/03/27 09:38:18;;;;;;;1.60;1.50;;;16.30;55.10;;;;;;5073071;28;20024;-77
2023/03/27 09:41:07;;;;;;;2.03;1.70;;;16.30;54.90;;;;;;5074704;28;20040;-77
2023/03/27 09:43:55;;;;;;;1.52;1.42;;;16.50;55.20;;;;;;5056131;28;20033;-80
2023/03/27 09:46:23;;;;;;;1.73;1.63;;;16.60;54.40;;;;;;5073672;28;20517;-77
2023/03/27 09:48:58;;;;;;;1.60;1.50;;;16.70;54.40;;;;;;5073350;28;20032;-76
2023/03/27 09:51:39;;;;;;;1.52;1.42;;;16.70;54.30;;;;;;5073874;28;20036;-79
2023/03/27 09:54:06;;;;;;;1.70;1.55;;;16.80;54.10;;;;;;5073844;28;20063;-84
2023/03/27 09:56:39;;;;;;;1.58;1.42;;;16.80;54.10;;;;;;5055122;28;20032;-83
2023/03/27 09:59:33;;;;;;;1.42;1.33;;;16.80;54.00;;;;;;5055314;28;20036;-83
2023/03/27 10:02:08;;;;;;;1.60;1.50;;;16.90;53.90;;;;;;5073061;28;20028;-82
2023/03/27 10:04:34;;;;;;;1.58;1.42;;;17.00;53.70;;;;;;5072390;28;20260;-82
2023/03/27 10:07:09;;;;;;;1.60;1.50;;;17.00;53.70;;;;;;5055229;28;20025;-82
2023/03/27 10:09:36;;;;;;;1.60;1.50;;;17.00;53.60;;;;;;5055237;28;20371;-83
2023/03/27 10:12:18;;;;;;;1.50;1.40;;;17.00;53.50;;;;;;5055900;28;20033;-84
2023/03/27 10:14:47;;;;;;;1.60;1.50;;;17.00;53.40;;;;;;5057198;28;20055;-84
2023/03/27 10:17:27;;;;;;;1.52;1.42;;;17.10;53.40;;;;;;5056211;28;20379;-83
2023/03/27 10:20:17;;;;;;;1.60;1.50;;;17.20;53.00;;;;;;5055677;28;20492;-83
2023/03/27 10:22:54;;;;;;;1.55;1.38;;;17.10;53.00;;;;;;5054934;28;20036;-84
2023/03/27 10:25:33;;;;;;;2.55;1.50;;;17.20;52.60;;;;;;5074283;28;20025;-84
2023/03/27 10:28:15;;;;;;;1.30;1.30;;;17.20;52.70;;;;;;5073896;28;20036;-84
2023/03/27 10:30:41;;;;;;;1.40;1.30;;;17.20;53.20;;;;;;5073083;28;20059;-84
2023/03/27 10:33:07;;;;;;;2.30;1.38;;;17.30;52.60;;;;;;5073610;28;20024;-84
2023/03/27 10:35:36;;;;;;;1.15;1.10;;;17.30;52.60;;;;;;5080539;28;20339;-82
2023/03/27 10:38:10;;;;;;;1.60;1.50;;;17.30;52.60;;;;;;5093611;28;20016;-85
2023/03/27 10:40:38;;;;;;;1.10;1.10;;;17.30;52.50;;;;;;5093290;28;20024;-84
2023/03/27 10:43:09;;;;;;;1.00;1.00;;;17.30;52.50;;;;;;5093440;28;20039;-83
2023/03/27 10:45:50;;;;;;;1.20;1.20;;;17.40;52.40;;;;;;5093588;28;20048;-83
2023/03/27 10:48:29;;;;;;;1.30;1.20;;;17.50;52.80;;;;;;5093552;28;20024;-83
2023/03/27 10:51:01;;;;;;;1.60;1.48;;;17.50;51.90;;;;;;5075229;28;20030;-83
2023/03/27 10:53:38;;;;;;;1.75;1.40;;;17.60;52.00;;;;;;5075757;28;20028;-83
2023/03/27 10:56:10;;;;;;;1.88;1.70;;;17.70;51.90;;;;;;5093712;28;20051;-83
2023/03/27 10:58:47;;;;;;;1.30;1.20;;;17.70;51.80;;;;;;5093810;28;20420;-83
2023/03/27 11:01:30;;;;;;;1.38;1.27;;;17.70;51.50;;;;;;5075380;28;20034;-84
2023/03/27 11:04:24;;;;;;;1.40;1.30;;;17.80;51.40;;;;;;5093599;28;20462;-83
2023/03/27 11:06:53;;;;;;;1.30;1.20;;;17.80;52.10;;;;;;5093943;28;20410;-83
2023/03/27 11:09:25;;;;;;;1.35;1.25;;;17.80;51.40;;;;;;5093830;28;20028;-84
2023/03/27 11:12:09;;;;;;;2.28;1.70;;;17.90;51.30;;;;;;5093624;28;20131;-83
2023/03/27 11:14:45;;;;;;;1.30;1.20;;;17.90;51.20;;;;;;5093869;28;20032;-83
2023/03/27 11:17:14;;;;;;;1.50;1.40;;;17.90;51.10;;;;;;5093526;28;20020;-83
2023/03/27 11:19:48;;;;;;;1.30;1.20;;;18.00;51.10;;;;;;5075011;28;20024;-84
2023/03/27 11:22:37;;;;;;;1.60;1.33;;;17.90;50.90;;;;;;5092727;28;20062;-83
2023/03/27 11:25:15;;;;;;;1.50;1.40;;;18.00;50.70;;;;;;5079624;28;20073;-83
2023/03/27 11:28:02;;;;;;;1.05;1.00;;;18.00;51.00;;;;;;5075210;28;20061;-83
2023/03/27 11:30:38;;;;;;;1.60;1.30;;;18.00;50.70;;;;;;5092978;28;20024;-83
2023/03/27 11:33:08;;;;;;;1.08;0.95;;;18.00;50.70;;;;;;5074942;28;20061;-84
2023/03/27 11:35:52;;;;;;;1.23;1.13;;;18.10;50.80;;;;;;5076587;28;20066;-83
2023/03/27 11:38:32;;;;;;;1.33;1.20;;;18.10;50.50;;;;;;5076160;28;20029;-83
2023/03/27 11:40:58;;;;;;;1.20;1.10;;;18.10;50.60;;;;;;5075481;28;20486;-83
2023/03/27 11:43:24;;;;;;;1.38;1.20;;;18.20;50.50;;;;;;5095928;28;20039;-83
2023/03/27 11:46:10;;;;;;;1.40;1.30;;;18.20;50.40;;;;;;5096776;28;20031;-83
2023/03/27 11:49:09;;;;;;;1.20;1.10;;;18.30;50.20;;;;;;5097213;28;20153;-84
2023/03/27 11:52:01;;;;;;;1.13;1.02;;;18.30;50.00;;;;;;5096534;28;20043;-83
2023/03/27 11:55:05;;;;;;;1.30;1.20;;;18.40;50.10;;;;;;5096614;28;20024;-83
2023/03/27 11:57:40;;;;;;;1.35;1.20;;;18.40;49.90;;;;;;5047148;28;20039;-82
2023/03/27 12:00:24;;;;;;;1.23;1.17;;;18.30;50.00;;;;;;5096945;28;20026;-83
2023/03/27 12:03:05;;;;;;;1.17;1.00;;;18.30;50.00;;;;;;5096753;28;20036;-83
2023/03/27 12:05:43;;;;;;;1.15;1.15;;;18.30;50.00;;;;;;5096563;28;20039;-83
2023/03/27 12:08:30;;;;;;;1.60;1.50;;;18.30;50.00;;;;;;5096253;28;20535;-83
2023/03/27 12:10:58;;;;;;;1.40;1.30;;;18.30;49.90;;;;;;5096472;28;20458;-83
2023/03/27 12:13:30;;;;;;;1.30;1.20;;;18.30;49.80;;;;;;5096001;28;20503;-83
2023/03/27 12:16:21;;;;;;;1.02;1.02;;;18.20;49.80;;;;;;5077900;28;20056;-83
2023/03/27 12:18:46;;;;;;;1.33;1.23;;;18.20;49.50;;;;;;5077918;28;20036;-83
2023/03/27 12:21:22;;;;;;;1.38;1.27;;;18.30;49.90;;;;;;5096002;28;20024;-83
2023/03/27 12:24:06;;;;;;;1.88;1.40;;;18.20;49.70;;;;;;5095805;28;20032;-83
2023/03/27 12:26:38;;;;;;;1.23;1.13;;;18.20;49.70;;;;;;5095905;28;20028;-83
2023/03/27 12:29:33;;;;;;;1.20;1.10;;;18.20;49.70;;;;;;5077715;28;20358;-85
2023/03/27 12:32:41;;;;;;;1.27;1.17;;;18.20;49.40;;;;;;5073552;28;20036;-83
2023/03/27 12:35:19;;;;;;;1.60;1.30;;;18.10;49.40;;;;;;5095409;28;20044;-82
2023/03/27 12:38:01;;;;;;;1.13;1.13;;;18.00;49.60;;;;;;5095837;28;20020;-84
2023/03/27 12:40:31;;;;;;;2.45;1.38;;;17.90;49.70;;;;;;5095849;28;20047;-83
2023/03/27 12:43:06;;;;;;;1.67;1.35;;;17.90;49.80;;;;;;5095950;28;20416;-83
2023/03/27 12:45:32;;;;;;;1.45;1.35;;;17.80;49.80;;;;;;5095760;28;20024;-84
2023/03/27 12:48:10;;;;;;;1.60;1.50;;;17.90;50.00;;;;;;5095982;28;20476;-84
2023/03/27 12:50:53;;;;;;;2.40;1.70;;;17.90;50.00;;;;;;5096223;28;20342;-84
2023/03/27 12:53:27;;;;;;;1.73;1.60;;;17.90;49.80;;;;;;5076731;28;20381;-84
2023/03/27 12:56:23;;;;;;;1.70;1.60;;;18.00;49.90;;;;;;5094083;28;20028;-84
2023/03/27 12:58:51;;;;;;;2.85;1.98;;;18.10;49.70;;;;;;5095927;28;20462;-83
2023/03/27 13:01:42;;;;;;;2.00;1.40;;;18.20;49.90;;;;;;5095158;28;20020;-83
2023/03/27 13:04:26;;;;;;;2.67;1.98;;;18.30;49.60;;;;;;5076592;28;20024;-83
2023/03/27 13:07:12;;;;;;;2.72;2.13;;;18.40;49.40;;;;;;5095349;28;20105;-84
2023/03/27 13:09:51;;;;;;;2.13;1.92;;;18.50;49.40;;;;;;5077272;28;20028;-83
2023/03/27 13:12:52;;;;;;;2.25;1.80;;;18.60;49.30;;;;;;5077164;28;20035;-83
2023/03/27 13:15:25;;;;;;;2.28;1.95;;;18.60;49.20;;;;;;5095290;28;20474;-83